createdAt,value
2022-10-30T00:01:04.113Z,10.13
2022-10-30T00:03:30.916Z,10.13
2022-10-30T00:05:57.620Z,10.09
2022-10-30T00:08:27.687Z,10.15
2022-10-30T00:10:54.778Z,10.00
2022-10-30T00:13:22.166Z,10.05
2022-10-30T00:15:53.929Z,10.15
2022-10-30T00:18:21.200Z,10.13
2022-10-30T00:20:49.422Z,10.17
2022-10-30T00:23:21.277Z,10.16
2022-10-30T00:25:48.080Z,10.10
2022-10-30T00:28:14.893Z,10.23
2022-10-30T00:30:41.788Z,10.16
2022-10-30T00:33:08.525Z,10.20
2022-10-30T00:35:35.329Z,10.18
2022-10-30T00:38:02.438Z,10.09
2022-10-30T00:40:29.274Z,10.10
2022-10-30T00:42:56.091Z,10.18
2022-10-30T00:45:22.844Z,10.19
2022-10-30T00:48:03.239Z,10.12
2022-10-30T00:50:34.939Z,10.09
2022-10-30T00:53:12.433Z,10.12
2022-10-30T00:55:57.587Z,10.07
2022-10-30T00:58:34.391Z,9.91
2022-10-30T01:01:06.072Z,9.97
2022-10-30T01:03:36.591Z,9.99
2022-10-30T01:06:07.044Z,9.94
2022-10-30T01:08:34.420Z,9.96
2022-10-30T01:11:03.429Z,9.92
2022-10-30T01:13:32.365Z,9.88
2022-10-30T01:16:33.584Z,9.82
2022-10-30T01:19:34.511Z,9.87
2022-10-30T01:22:21.388Z,9.88
2022-10-30T01:25:05.678Z,9.90
2022-10-30T01:28:03.525Z,9.82
2022-10-30T01:30:48.812Z,9.71
2022-10-30T01:33:38.356Z,9.80
2022-10-30T01:36:13.932Z,9.72
2022-10-30T01:38:52.175Z,9.70
2022-10-30T01:41:18.965Z,9.65
2022-10-30T01:43:49.060Z,9.72
2022-10-30T01:46:37.379Z,9.72
2022-10-30T01:49:30.901Z,9.51
2022-10-30T01:52:17.663Z,9.56
2022-10-30T01:54:59.848Z,9.55
2022-10-30T01:58:05.533Z,9.37
2022-10-30T02:00:32.514Z,9.47
2022-10-30T02:02:59.566Z,9.42
2022-10-30T02:05:48.451Z,9.44
2022-10-30T02:08:15.295Z,9.36
2022-10-30T02:10:46.064Z,9.34
2022-10-30T02:13:13.198Z,9.31
2022-10-30T02:15:41.165Z,9.28
2022-10-30T02:18:08.018Z,9.16
2022-10-30T02:20:35.124Z,9.19
2022-10-30T02:23:02.428Z,9.28
2022-10-30T02:25:29.557Z,9.24
2022-10-30T02:27:56.299Z,9.13
2022-10-30T02:30:23.043Z,9.19
2022-10-30T02:32:49.760Z,9.17
2022-10-30T02:35:16.550Z,9.11
2022-10-30T02:37:43.330Z,8.94
2022-10-30T02:40:10.903Z,9.09
2022-10-30T02:42:37.661Z,8.91
2022-10-30T02:45:04.880Z,9.00
2022-10-30T02:47:31.610Z,8.97
2022-10-30T02:49:59.038Z,8.95
2022-10-30T02:52:25.726Z,8.95
2022-10-30T02:54:52.456Z,8.96
2022-10-30T02:57:19.140Z,9.02
2022-10-30T02:59:45.823Z,8.91
2022-10-30T03:02:12.688Z,8.92
2022-10-30T03:04:39.452Z,8.82
2022-10-30T03:07:06.210Z,8.78
2022-10-30T03:09:32.915Z,8.76
2022-10-30T03:11:59.613Z,8.83
2022-10-30T03:14:29.215Z,8.70
2022-10-30T03:16:55.920Z,8.68
2022-10-30T03:19:22.751Z,8.65
2022-10-30T03:21:49.558Z,8.53
2022-10-30T03:24:16.463Z,8.58
2022-10-30T03:26:43.276Z,8.52
2022-10-30T03:29:10.728Z,8.56
2022-10-30T03:31:37.543Z,8.61
2022-10-30T03:34:04.264Z,8.57
2022-10-30T03:36:31.021Z,8.50
2022-10-30T03:38:57.755Z,8.50
2022-10-30T03:41:24.556Z,8.55
2022-10-30T03:43:51.765Z,8.50
2022-10-30T03:46:18.539Z,8.41
2022-10-30T03:48:49.768Z,8.53
2022-10-30T03:51:17.340Z,8.61
2022-10-30T03:53:44.080Z,8.59
2022-10-30T03:56:10.919Z,8.54
2022-10-30T03:58:37.647Z,8.47
2022-10-30T04:01:06.891Z,8.46
2022-10-30T04:03:34.215Z,8.33
2022-10-30T04:06:00.981Z,8.31
2022-10-30T04:08:27.917Z,8.31
2022-10-30T04:10:54.801Z,8.30
2022-10-30T04:13:21.602Z,8.29
2022-10-30T04:15:56.368Z,8.34
2022-10-30T04:18:25.705Z,8.28
2022-10-30T04:20:52.508Z,8.12
2022-10-30T04:23:21.399Z,8.16
2022-10-30T04:25:50.153Z,8.16
2022-10-30T04:28:17.430Z,8.09
2022-10-30T04:30:47.030Z,8.13
2022-10-30T04:33:14.739Z,8.16
2022-10-30T04:35:42.896Z,8.17
2022-10-30T04:38:15.183Z,8.08
2022-10-30T04:40:43.663Z,8.00
2022-10-30T04:43:11.768Z,7.91
2022-10-30T04:45:41.874Z,8.06
2022-10-30T04:48:12.174Z,8.12
2022-10-30T04:50:39.138Z,8.02
2022-10-30T04:53:14.004Z,8.08
2022-10-30T04:55:42.803Z,7.88
2022-10-30T04:58:10.254Z,7.67
2022-10-30T05:00:37.267Z,7.65
2022-10-30T05:03:04.333Z,7.89
2022-10-30T05:05:32.097Z,7.97
2022-10-30T05:08:00.424Z,7.97
2022-10-30T05:10:27.651Z,7.91
2022-10-30T05:12:54.575Z,7.84
2022-10-30T05:15:21.702Z,7.74
2022-10-30T05:17:53.308Z,7.72
2022-10-30T05:20:21.200Z,7.83
2022-10-30T05:22:58.597Z,7.77
2022-10-30T05:25:26.926Z,7.77
2022-10-30T05:28:05.162Z,7.88
2022-10-30T05:30:34.823Z,7.85
2022-10-30T05:33:05.925Z,7.80
2022-10-30T05:35:33.930Z,7.65
2022-10-30T05:38:02.451Z,7.60
2022-10-30T05:40:29.459Z,7.70
2022-10-30T05:42:56.562Z,7.79
2022-10-30T05:45:23.775Z,7.88
2022-10-30T05:48:03.518Z,7.83
2022-10-30T05:50:36.492Z,7.70
2022-10-30T05:53:05.363Z,7.76
2022-10-30T05:55:32.846Z,7.72
2022-10-30T05:58:05.412Z,7.64
2022-10-30T06:00:36.084Z,7.67
2022-10-30T06:03:06.334Z,7.61
2022-10-30T06:05:36.116Z,7.66
2022-10-30T06:08:04.978Z,7.69
2022-10-30T06:10:32.206Z,7.64
2022-10-30T06:13:02.398Z,7.55
2022-10-30T06:15:30.781Z,7.54
2022-10-30T06:17:58.547Z,7.52
2022-10-30T06:20:30.018Z,7.68
2022-10-30T06:23:01.558Z,7.62
2022-10-30T06:25:31.665Z,7.62
2022-10-30T06:27:59.463Z,7.69
2022-10-30T06:30:27.879Z,7.68
2022-10-30T06:33:03.155Z,7.70
2022-10-30T06:35:30.763Z,7.56
2022-10-30T06:38:00.369Z,7.64
2022-10-30T06:40:30.135Z,7.68
2022-10-30T06:42:57.826Z,7.71
2022-10-30T06:45:27.670Z,7.70
2022-10-30T06:47:54.565Z,7.72
2022-10-30T06:50:22.220Z,7.74
2022-10-30T06:52:50.419Z,7.70
2022-10-30T06:55:18.003Z,7.72
2022-10-30T06:57:58.363Z,7.78
2022-10-30T07:00:25.443Z,7.77
2022-10-30T07:03:06.719Z,7.71
2022-10-30T07:05:33.534Z,7.76
2022-10-30T07:08:00.261Z,7.85
2022-10-30T07:10:27.018Z,7.89
2022-10-30T07:12:55.874Z,8.00
2022-10-30T07:15:23.431Z,8.04
2022-10-30T07:18:03.135Z,8.12
2022-10-30T07:20:34.287Z,8.28
2022-10-30T07:23:01.822Z,8.31
2022-10-30T07:25:29.316Z,8.44
2022-10-30T07:27:57.696Z,8.47
2022-10-30T07:33:13.909Z,8.70
2022-10-30T07:35:40.674Z,8.81
2022-10-30T07:38:12.792Z,8.92
2022-10-30T07:40:40.749Z,8.95
2022-10-30T07:43:13.301Z,9.15
2022-10-30T07:45:40.275Z,9.21
2022-10-30T07:48:06.979Z,9.38
2022-10-30T07:50:34.718Z,9.47
2022-10-30T07:53:01.435Z,9.68
2022-10-30T07:55:28.175Z,9.76
2022-10-30T07:57:57.335Z,9.89
2022-10-30T08:00:24.505Z,10.05
2022-10-30T08:02:57.751Z,10.22
2022-10-30T08:05:28.829Z,10.39
2022-10-30T08:07:58.383Z,10.55
2022-10-30T08:10:25.492Z,10.74
2022-10-30T08:12:52.312Z,10.89
2022-10-30T08:15:19.450Z,11.06
2022-10-30T08:17:48.822Z,11.22
2022-10-30T08:20:18.969Z,11.41
2022-10-30T08:22:53.154Z,11.61
2022-10-30T08:25:22.346Z,11.79
2022-10-30T08:27:59.072Z,11.94
2022-10-30T08:30:32.408Z,12.07
2022-10-30T08:33:02.051Z,12.26
2022-10-30T08:35:30.274Z,12.37
2022-10-30T08:38:03.020Z,12.52
2022-10-30T08:40:29.937Z,12.70
2022-10-30T08:42:58.281Z,12.80
2022-10-30T08:45:29.937Z,12.92
2022-10-30T08:48:03.394Z,13.11
2022-10-30T08:50:31.681Z,13.27
2022-10-30T08:53:07.157Z,13.47
2022-10-30T08:55:35.206Z,13.61
2022-10-30T08:58:02.267Z,13.76
2022-10-30T09:00:29.909Z,13.88
2022-10-30T09:02:57.189Z,14.04
2022-10-30T09:05:24.223Z,14.14
2022-10-30T09:07:57.631Z,14.29
2022-10-30T09:10:24.740Z,14.38
2022-10-30T09:12:58.534Z,14.59
2022-10-30T09:15:26.713Z,14.71
2022-10-30T09:18:03.002Z,14.80
2022-10-30T09:20:30.972Z,14.94
2022-10-30T09:22:58.230Z,15.00
2022-10-30T09:25:25.474Z,15.12
2022-10-30T09:27:52.181Z,15.23
2022-10-30T09:30:19.014Z,15.29
2022-10-30T09:32:46.686Z,15.44
2022-10-30T09:35:15.770Z,15.52
2022-10-30T09:37:42.544Z,15.73
2022-10-30T09:40:18.164Z,16.05
2022-10-30T09:42:48.836Z,16.29
2022-10-30T09:45:52.937Z,16.46
2022-10-30T09:48:43.955Z,16.63
2022-10-30T09:51:19.664Z,16.79
2022-10-30T09:54:25.243Z,16.84
2022-10-30T09:57:19.467Z,17.11
2022-10-30T10:00:11.243Z,17.34
2022-10-30T10:03:21.864Z,17.61
2022-10-30T10:06:18.847Z,17.98
2022-10-30T10:08:55.184Z,18.26
2022-10-30T10:11:32.755Z,18.53
2022-10-30T10:14:14.451Z,18.70
2022-10-30T10:16:44.106Z,18.99
2022-10-30T10:19:23.520Z,19.20
2022-10-30T10:21:57.948Z,19.39
2022-10-30T10:24:38.338Z,19.50
2022-10-30T10:27:31.812Z,19.80
2022-10-30T10:30:05.827Z,19.99
2022-10-30T10:33:33.089Z,20.18
2022-10-30T10:36:44.329Z,20.41
2022-10-30T10:40:00.822Z,20.78
2022-10-30T10:43:14.851Z,20.90
2022-10-30T10:45:41.515Z,20.86
2022-10-30T10:48:33.996Z,21.00
2022-10-30T10:51:21.362Z,21.18
2022-10-30T10:54:35.301Z,21.26
2022-10-30T10:57:05.371Z,21.35
2022-10-30T10:59:42.565Z,21.54
2022-10-30T11:02:09.426Z,21.75
2022-10-30T11:04:48.167Z,21.96
2022-10-30T11:07:24.543Z,22.20
2022-10-30T11:09:56.168Z,22.34
2022-10-30T11:12:35.273Z,22.50
2022-10-30T11:15:21.899Z,22.67
2022-10-30T11:18:09.946Z,22.74
2022-10-30T11:20:38.691Z,22.92
2022-10-30T11:23:32.296Z,22.99
2022-10-30T11:25:59.640Z,23.05
2022-10-30T11:28:53.231Z,23.27
2022-10-30T11:31:35.041Z,23.43
2022-10-30T11:34:19.977Z,23.65
2022-10-30T11:36:49.231Z,23.68
2022-10-30T11:39:23.221Z,23.75
2022-10-30T11:42:17.796Z,23.85
2022-10-30T11:44:49.639Z,23.93
2022-10-30T11:47:23.096Z,24.03
2022-10-30T11:49:55.058Z,24.17
2022-10-30T11:52:24.664Z,24.36
2022-10-30T11:55:00.260Z,24.53
2022-10-30T11:57:34.703Z,24.63
2022-10-30T12:00:15.855Z,24.74
2022-10-30T12:02:47.146Z,24.86
2022-10-30T12:05:45.055Z,24.97
2022-10-30T12:08:18.817Z,25.08
2022-10-30T12:11:00.659Z,25.12
2022-10-30T12:13:33.834Z,25.23
2022-10-30T12:16:16.133Z,25.44
2022-10-30T12:19:02.253Z,25.56
2022-10-30T12:21:38.183Z,25.58
2022-10-30T12:24:09.513Z,25.60
2022-10-30T12:26:38.231Z,25.74
2022-10-30T12:29:14.693Z,25.92
2022-10-30T12:32:07.937Z,25.95
2022-10-30T12:34:56.064Z,25.96
2022-10-30T12:37:33.468Z,26.05
2022-10-30T12:40:16.299Z,25.98
2022-10-30T12:42:58.853Z,26.01
2022-10-30T12:45:35.929Z,26.01
2022-10-30T12:48:12.345Z,26.01
2022-10-30T12:51:31.755Z,25.91
2022-10-30T12:54:07.401Z,25.82
2022-10-30T12:56:39.821Z,25.82
2022-10-30T12:59:43.761Z,25.86
2022-10-30T13:02:13.336Z,25.88
2022-10-30T13:04:45.479Z,25.85
2022-10-30T13:07:36.198Z,25.78
2022-10-30T13:10:31.143Z,25.89
2022-10-30T13:13:16.833Z,25.86
2022-10-30T13:15:56.075Z,25.92
2022-10-30T13:18:26.982Z,25.89
2022-10-30T13:21:36.607Z,25.91
2022-10-30T13:24:27.388Z,25.86
2022-10-30T13:27:20.810Z,25.81
2022-10-30T13:30:01.606Z,25.74
2022-10-30T13:32:34.355Z,25.74
2022-10-30T13:35:20.251Z,25.67
2022-10-30T13:38:10.921Z,25.58
2022-10-30T13:40:43.816Z,25.49
2022-10-30T13:43:25.038Z,25.49
2022-10-30T13:46:25.631Z,25.58
2022-10-30T13:49:19.700Z,25.52
2022-10-30T13:51:56.977Z,25.54
2022-10-30T13:54:31.683Z,25.53
2022-10-30T13:57:17.488Z,25.45
2022-10-30T14:00:16.053Z,25.49
2022-10-30T14:03:04.426Z,25.51
2022-10-30T14:05:58.514Z,25.38
2022-10-30T14:08:40.272Z,25.37
2022-10-30T14:11:12.238Z,25.31
2022-10-30T14:14:13.465Z,25.22
2022-10-30T14:17:12.846Z,25.16
2022-10-30T14:20:13.689Z,25.08
2022-10-30T14:22:42.307Z,25.04
2022-10-30T14:25:15.935Z,25.05
2022-10-30T14:27:43.009Z,24.97
2022-10-30T14:30:20.158Z,25.00
2022-10-30T14:32:53.325Z,24.89
2022-10-30T14:35:38.726Z,24.90
2022-10-30T14:38:08.107Z,24.86
2022-10-30T14:40:46.357Z,24.72
2022-10-30T14:43:27.751Z,24.67
2022-10-30T14:46:02.024Z,24.60
2022-10-30T14:48:38.798Z,24.50
2022-10-30T14:51:29.155Z,24.36
2022-10-30T14:54:15.670Z,24.26
2022-10-30T14:56:52.149Z,24.09
2022-10-30T14:59:22.732Z,23.92
2022-10-30T15:02:17.337Z,23.74
2022-10-30T15:05:17.537Z,23.58
2022-10-30T15:07:55.114Z,23.42
2022-10-30T15:10:36.716Z,23.18
2022-10-30T15:13:23.169Z,22.94
2022-10-30T15:16:05.954Z,22.92
2022-10-30T15:18:33.051Z,22.77
2022-10-30T15:21:06.811Z,22.50
2022-10-30T15:23:36.744Z,22.39
2022-10-30T15:26:09.860Z,22.25
2022-10-30T15:28:39.193Z,21.99
2022-10-30T15:31:24.330Z,21.84
2022-10-30T15:33:54.318Z,21.69
2022-10-30T15:36:24.886Z,21.54
2022-10-30T15:39:18.554Z,21.36
2022-10-30T15:41:49.894Z,21.11
2022-10-30T15:44:23.723Z,20.90
2022-10-30T15:46:54.887Z,20.77
2022-10-30T15:49:31.289Z,20.60
2022-10-30T15:52:01.488Z,20.43
2022-10-30T15:54:29.838Z,20.27
2022-10-30T15:57:31.792Z,20.12
2022-10-30T15:59:59.354Z,19.84
2022-10-30T16:02:27.084Z,19.61
2022-10-30T16:04:54.295Z,19.36
2022-10-30T16:10:02.943Z,19.14
2022-10-30T16:12:34.686Z,18.93
2022-10-30T16:15:08.219Z,18.73
2022-10-30T16:17:35.135Z,18.62
2022-10-30T16:20:03.514Z,18.49
2022-10-30T16:22:36.760Z,18.31
2022-10-30T16:25:07.965Z,18.09
2022-10-30T16:27:43.399Z,18.02
2022-10-30T16:30:14.510Z,17.89
2022-10-30T16:32:41.739Z,17.79
2022-10-30T16:35:11.642Z,17.54
2022-10-30T16:37:40.831Z,17.45
2022-10-30T16:40:19.593Z,17.36
2022-10-30T16:43:01.134Z,17.21
2022-10-30T16:45:34.214Z,17.02
2022-10-30T16:48:09.067Z,16.83
2022-10-30T16:50:38.541Z,16.63
2022-10-30T16:53:08.260Z,16.56
2022-10-30T16:55:38.675Z,16.52
2022-10-30T16:58:05.663Z,16.38
2022-10-30T17:00:36.392Z,16.20
2022-10-30T17:03:11.036Z,16.05
2022-10-30T17:05:38.926Z,16.01
2022-10-30T17:08:27.767Z,15.90
2022-10-30T17:11:02.832Z,15.78
2022-10-30T17:13:46.116Z,15.71
2022-10-30T17:16:27.398Z,15.55
2022-10-30T17:19:16.660Z,15.45
2022-10-30T17:21:43.469Z,15.37
2022-10-30T17:24:21.645Z,15.27
2022-10-30T17:27:00.542Z,15.14
2022-10-30T17:29:45.703Z,14.86
2022-10-30T17:32:22.193Z,14.85
2022-10-30T17:35:13.477Z,14.79
2022-10-30T17:37:40.406Z,14.58
2022-10-30T17:40:07.727Z,14.48
2022-10-30T17:42:34.565Z,14.50
2022-10-30T17:45:01.639Z,14.46
2022-10-30T17:47:28.815Z,14.41
2022-10-30T17:49:55.540Z,14.16
2022-10-30T17:52:22.278Z,14.20
2022-10-30T17:54:49.398Z,13.98
2022-10-30T17:57:17.012Z,13.97
2022-10-30T17:59:44.103Z,13.83
2022-10-30T18:02:17.321Z,13.85
2022-10-30T18:04:45.448Z,13.75
2022-10-30T18:07:13.577Z,13.59
2022-10-30T18:09:40.696Z,13.47
2022-10-30T18:12:13.910Z,13.39
2022-10-30T18:14:40.711Z,13.34
2022-10-30T18:17:07.621Z,13.26
2022-10-30T18:19:34.443Z,13.19
2022-10-30T18:22:01.757Z,13.18
2022-10-30T18:24:28.536Z,13.22
2022-10-30T18:26:55.446Z,13.11
2022-10-30T18:29:22.170Z,13.06
2022-10-30T18:31:48.860Z,13.05
2022-10-30T18:34:20.607Z,13.05
2022-10-30T18:36:48.782Z,12.90
2022-10-30T18:39:15.789Z,12.81
2022-10-30T18:41:45.701Z,12.80
2022-10-30T18:44:18.679Z,12.60
2022-10-30T18:46:45.980Z,12.59
2022-10-30T18:49:12.997Z,12.47
2022-10-30T18:51:40.188Z,12.51
2022-10-30T18:54:16.904Z,12.45
2022-10-30T18:56:43.893Z,12.38
2022-10-30T18:59:11.778Z,12.24
2022-10-30T19:01:38.948Z,12.25
2022-10-30T19:04:11.969Z,12.13
2022-10-30T19:06:39.141Z,12.17
2022-10-30T19:09:06.367Z,12.08
2022-10-30T19:11:33.805Z,12.04
2022-10-30T19:14:00.696Z,11.95
2022-10-30T19:16:28.002Z,11.93
2022-10-30T19:18:54.783Z,11.93
2022-10-30T19:21:28.188Z,11.85
2022-10-30T19:23:56.363Z,11.85
2022-10-30T19:26:23.154Z,11.80
2022-10-30T19:28:49.866Z,11.70
2022-10-30T19:31:18.866Z,11.62
2022-10-30T19:33:48.171Z,11.61
2022-10-30T19:36:30.037Z,11.55
2022-10-30T19:38:57.108Z,11.54
2022-10-30T19:41:25.004Z,11.53
2022-10-30T19:43:53.311Z,11.50
2022-10-30T19:46:21.156Z,11.51
2022-10-30T19:48:57.148Z,11.44
2022-10-30T19:51:24.787Z,11.31
2022-10-30T19:53:53.820Z,11.26
2022-10-30T19:56:21.265Z,11.24
2022-10-30T19:58:48.232Z,11.23
2022-10-30T20:01:15.395Z,11.21
2022-10-30T20:03:42.291Z,11.13
2022-10-30T20:06:12.483Z,11.04
2022-10-30T20:08:39.568Z,11.00
2022-10-30T20:11:06.339Z,10.93
2022-10-30T20:13:33.771Z,10.90
2022-10-30T20:16:05.661Z,10.94
2022-10-30T20:18:35.189Z,10.80
2022-10-30T20:21:10.084Z,10.72
2022-10-30T20:23:37.483Z,10.58
2022-10-30T20:26:24.644Z,10.59
2022-10-30T20:28:52.037Z,10.62
2022-10-30T20:31:18.924Z,10.54
2022-10-30T20:33:45.654Z,10.47
2022-10-30T20:36:14.468Z,10.48
2022-10-30T20:38:41.295Z,10.37
2022-10-30T20:41:22.016Z,10.35
2022-10-30T20:43:50.225Z,10.34
2022-10-30T20:46:18.394Z,10.30
2022-10-30T20:48:45.145Z,10.19
2022-10-30T20:51:12.532Z,10.07
2022-10-30T20:53:39.388Z,10.08
2022-10-30T20:56:06.955Z,10.10
2022-10-30T20:58:33.689Z,10.11
2022-10-30T21:01:00.806Z,10.03
2022-10-30T21:03:27.735Z,9.98
2022-10-30T21:06:00.646Z,9.94
2022-10-30T21:08:31.589Z,9.90
2022-10-30T21:11:06.719Z,9.71
2022-10-30T21:13:34.779Z,9.67
2022-10-30T21:16:05.504Z,9.78
2022-10-30T21:18:32.546Z,9.76
2022-10-30T21:21:08.127Z,9.76
2022-10-30T21:23:35.115Z,9.83
2022-10-30T21:26:07.425Z,9.87
2022-10-30T21:28:34.422Z,9.86
2022-10-30T21:31:03.022Z,9.79
2022-10-30T21:33:34.423Z,9.69
2022-10-30T21:36:12.948Z,9.54
2022-10-30T21:38:42.267Z,9.70
2022-10-30T21:41:14.370Z,9.71
2022-10-30T21:43:41.582Z,9.61
2022-10-30T21:46:11.986Z,9.61
2022-10-30T21:48:40.072Z,9.56
2022-10-30T21:51:12.460Z,9.51
2022-10-30T21:53:39.860Z,9.34
2022-10-30T21:56:12.920Z,9.35
2022-10-30T21:58:39.721Z,9.25
2022-10-30T22:01:07.163Z,9.30
2022-10-30T22:03:34.251Z,9.24
2022-10-30T22:06:06.899Z,9.28
2022-10-30T22:08:33.986Z,8.97
2022-10-30T22:11:09.282Z,8.99
2022-10-30T22:13:37.530Z,8.91
2022-10-30T22:16:07.264Z,9.03
2022-10-30T22:18:35.030Z,8.83
2022-10-30T22:21:06.429Z,8.99
2022-10-30T22:23:35.418Z,8.63
2022-10-30T22:26:06.044Z,8.86
2022-10-30T22:28:34.835Z,8.99
2022-10-30T22:31:13.024Z,8.92
2022-10-30T22:33:40.502Z,8.98
2022-10-30T22:36:14.104Z,8.98
2022-10-30T22:38:41.059Z,8.81
2022-10-30T22:41:27.122Z,8.78
2022-10-30T22:43:58.783Z,8.85
2022-10-30T22:46:29.013Z,8.61
2022-10-30T22:48:57.427Z,8.87
2022-10-30T22:51:25.486Z,8.82
2022-10-30T22:53:58.939Z,8.76
2022-10-30T22:56:30.228Z,8.81
2022-10-30T22:58:57.690Z,8.70
2022-10-30T23:01:28.249Z,8.60
2022-10-30T23:03:57.934Z,8.64
2022-10-30T23:06:25.758Z,8.48
2022-10-30T23:08:54.283Z,8.63
2022-10-30T23:11:21.512Z,8.65
2022-10-30T23:13:48.705Z,8.71
2022-10-30T23:16:18.767Z,8.41
2022-10-30T23:18:46.320Z,8.67
2022-10-30T23:21:19.893Z,8.60
2022-10-30T23:23:47.506Z,8.60
2022-10-30T23:26:18.806Z,8.40
2022-10-30T23:28:46.939Z,8.27
2022-10-30T23:31:24.239Z,8.62
2022-10-30T23:33:53.765Z,8.48
2022-10-30T23:36:23.427Z,8.40
2022-10-30T23:38:55.247Z,8.39
2022-10-30T23:41:24.740Z,8.26
2022-10-30T23:44:02.261Z,8.31
2022-10-30T23:46:29.422Z,7.84
2022-10-30T23:48:56.299Z,8.04
2022-10-30T23:51:24.004Z,8.01
2022-10-30T23:53:51.615Z,7.89
2022-10-30T23:56:18.970Z,7.98
2022-10-30T23:58:47.665Z,7.96
